sensor_id;sensor_type;location;lat;lon;timestamp;P1;durP1;ratioP1;P2;durP2;ratioP2
49384;SDS011;36795;45.028;38.968;2023-01-10T00:02:12;26.25;;;9.77;;
49384;SDS011;36795;45.028;38.968;2023-01-10T00:04:58;31.17;;;10.63;;
49384;SDS011;36795;45.028;38.968;2023-01-10T00:07:45;30.33;;;10.07;;
49384;SDS011;36795;45.028;38.968;2023-01-10T00:10:32;28.08;;;9.05;;
49384;SDS011;36795;45.028;38.968;2023-01-10T00:13:18;28.10;;;9.80;;
49384;SDS011;36795;45.028;38.968;2023-01-10T00:16:10;27.98;;;8.20;;
49384;SDS011;36795;45.028;38.968;2023-01-10T00:18:57;31.33;;;10.55;;
49384;SDS011;36795;45.028;38.968;2023-01-10T00:21:43;30.92;;;10.35;;
49384;SDS011;36795;45.028;38.968;2023-01-10T00:24:30;28.05;;;9.25;;
49384;SDS011;36795;45.028;38.968;2023-01-10T00:27:16;29.92;;;10.60;;
49384;SDS011;36795;45.028;38.968;2023-01-10T00:30:09;30.60;;;9.50;;
49384;SDS011;36795;45.028;38.968;2023-01-10T00:32:58;29.08;;;10.00;;
49384;SDS011;36795;45.028;38.968;2023-01-10T00:35:45;27.95;;;8.93;;
49384;SDS011;36795;45.028;38.968;2023-01-10T00:38:32;31.55;;;9.77;;
49384;SDS011;36795;45.028;38.968;2023-01-10T00:41:19;29.48;;;9.65;;
49384;SDS011;36795;45.028;38.968;2023-01-10T00:44:24;31.55;;;10.75;;
49384;SDS011;36795;45.028;38.968;2023-01-10T00:47:10;28.25;;;9.52;;
49384;SDS011;36795;45.028;38.968;2023-01-10T00:49:57;29.58;;;9.23;;
49384;SDS011;36795;45.028;38.968;2023-01-10T00:52:42;30.40;;;9.40;;
49384;SDS011;36795;45.028;38.968;2023-01-10T00:55:29;30.73;;;9.45;;
49384;SDS011;36795;45.028;38.968;2023-01-10T00:58:15;21.52;;;7.03;;
49384;SDS011;36795;45.028;38.968;2023-01-10T01:01:01;25.60;;;8.25;;
49384;SDS011;36795;45.028;38.968;2023-01-10T01:03:47;27.70;;;8.75;;
49384;SDS011;36795;45.028;38.968;2023-01-10T01:06:34;32.05;;;9.68;;
49384;SDS011;36795;45.028;38.968;2023-01-10T01:09:21;29.77;;;8.98;;
49384;SDS011;36795;45.028;38.968;2023-01-10T01:12:07;31.65;;;9.63;;
49384;SDS011;36795;45.028;38.968;2023-01-10T01:14:53;33.97;;;9.43;;
49384;SDS011;36795;45.028;38.968;2023-01-10T01:17:40;30.08;;;9.98;;
49384;SDS011;36795;45.028;38.968;2023-01-10T01:20:26;28.77;;;9.40;;
49384;SDS011;36795;45.028;38.968;2023-01-10T01:23:14;30.70;;;9.98;;
49384;SDS011;36795;45.028;38.968;2023-01-10T01:26:00;32.08;;;10.63;;
49384;SDS011;36795;45.028;38.968;2023-01-10T01:28:46;30.50;;;11.30;;
49384;SDS011;36795;45.028;38.968;2023-01-10T01:31:32;27.75;;;8.15;;
49384;SDS011;36795;45.028;38.968;2023-01-10T01:34:19;31.12;;;9.98;;
49384;SDS011;36795;45.028;38.968;2023-01-10T01:37:05;30.88;;;10.80;;
49384;SDS011;36795;45.028;38.968;2023-01-10T01:39:52;33.67;;;10.55;;
49384;SDS011;36795;45.028;38.968;2023-01-10T01:42:38;30.55;;;10.60;;
49384;SDS011;36795;45.028;38.968;2023-01-10T01:51:08;30.00;;;10.25;;
49384;SDS011;36795;45.028;38.968;2023-01-10T01:54:02;28.92;;;10.23;;
49384;SDS011;36795;45.028;38.968;2023-01-10T01:56:56;31.62;;;10.27;;
49384;SDS011;36795;45.028;38.968;2023-01-10T01:59:44;31.98;;;10.15;;
49384;SDS011;36795;45.028;38.968;2023-01-10T02:02:32;29.63;;;10.30;;
49384;SDS011;36795;45.028;38.968;2023-01-10T02:05:20;30.10;;;10.18;;
49384;SDS011;36795;45.028;38.968;2023-01-10T02:08:07;29.90;;;9.63;;
49384;SDS011;36795;45.028;38.968;2023-01-10T02:11:02;31.37;;;10.48;;
49384;SDS011;36795;45.028;38.968;2023-01-10T02:13:50;30.12;;;9.70;;
49384;SDS011;36795;45.028;38.968;2023-01-10T02:16:37;29.02;;;9.65;;
49384;SDS011;36795;45.028;38.968;2023-01-10T02:19:28;29.50;;;9.85;;
49384;SDS011;36795;45.028;38.968;2023-01-10T02:25:34;24.77;;;8.00;;
49384;SDS011;36795;45.028;38.968;2023-01-10T02:31:24;31.25;;;10.25;;
49384;SDS011;36795;45.028;38.968;2023-01-10T02:40:13;31.10;;;10.07;;
49384;SDS011;36795;45.028;38.968;2023-01-10T02:48:54;32.67;;;10.30;;
49384;SDS011;36795;45.028;38.968;2023-01-10T02:51:39;28.00;;;9.32;;
49384;SDS011;36795;45.028;38.968;2023-01-10T02:54:26;28.73;;;9.50;;
49384;SDS011;36795;45.028;38.968;2023-01-10T02:57:27;28.85;;;9.85;;
49384;SDS011;36795;45.028;38.968;2023-01-10T03:06:01;30.60;;;10.05;;
49384;SDS011;36795;45.028;38.968;2023-01-10T03:08:55;28.45;;;9.57;;
49384;SDS011;36795;45.028;38.968;2023-01-10T03:11:45;31.90;;;10.38;;
49384;SDS011;36795;45.028;38.968;2023-01-10T03:14:31;36.15;;;10.52;;
49384;SDS011;36795;45.028;38.968;2023-01-10T03:17:18;26.90;;;8.38;;
49384;SDS011;36795;45.028;38.968;2023-01-10T03:20:05;32.00;;;9.57;;
49384;SDS011;36795;45.028;38.968;2023-01-10T03:22:52;31.42;;;11.32;;
49384;SDS011;36795;45.028;38.968;2023-01-10T03:25:40;31.15;;;10.73;;
49384;SDS011;36795;45.028;38.968;2023-01-10T03:28:37;30.73;;;9.77;;
49384;SDS011;36795;45.028;38.968;2023-01-10T03:31:30;33.85;;;9.82;;
49384;SDS011;36795;45.028;38.968;2023-01-10T03:34:17;35.70;;;9.50;;
49384;SDS011;36795;45.028;38.968;2023-01-10T03:37:08;31.35;;;10.40;;
49384;SDS011;36795;45.028;38.968;2023-01-10T03:46:17;30.30;;;11.07;;
49384;SDS011;36795;45.028;38.968;2023-01-10T03:49:05;34.63;;;10.82;;
49384;SDS011;36795;45.028;38.968;2023-01-10T03:51:53;27.87;;;10.93;;
49384;SDS011;36795;45.028;38.968;2023-01-10T03:54:41;31.50;;;10.63;;
49384;SDS011;36795;45.028;38.968;2023-01-10T03:57:27;36.08;;;11.30;;
49384;SDS011;36795;45.028;38.968;2023-01-10T04:00:13;32.22;;;10.27;;
49384;SDS011;36795;45.028;38.968;2023-01-10T04:03:00;29.20;;;11.18;;
49384;SDS011;36795;45.028;38.968;2023-01-10T04:05:46;29.27;;;10.15;;
49384;SDS011;36795;45.028;38.968;2023-01-10T04:08:32;34.58;;;10.18;;
49384;SDS011;36795;45.028;38.968;2023-01-10T04:11:18;33.30;;;10.77;;
49384;SDS011;36795;45.028;38.968;2023-01-10T04:14:05;29.52;;;9.60;;
49384;SDS011;36795;45.028;38.968;2023-01-10T04:16:51;36.45;;;10.63;;
49384;SDS011;36795;45.028;38.968;2023-01-10T04:19:37;34.53;;;10.82;;
49384;SDS011;36795;45.028;38.968;2023-01-10T04:22:23;32.13;;;9.98;;
49384;SDS011;36795;45.028;38.968;2023-01-10T04:25:10;30.02;;;10.18;;
49384;SDS011;36795;45.028;38.968;2023-01-10T04:27:56;35.30;;;10.80;;
49384;SDS011;36795;45.028;38.968;2023-01-10T04:30:43;32.22;;;11.20;;
49384;SDS011;36795;45.028;38.968;2023-01-10T04:33:29;33.85;;;10.45;;
49384;SDS011;36795;45.028;38.968;2023-01-10T04:36:16;34.08;;;10.27;;
49384;SDS011;36795;45.028;38.968;2023-01-10T04:39:02;36.95;;;11.90;;
49384;SDS011;36795;45.028;38.968;2023-01-10T04:41:49;31.45;;;10.77;;
49384;SDS011;36795;45.028;38.968;2023-01-10T04:44:35;36.10;;;13.57;;
49384;SDS011;36795;45.028;38.968;2023-01-10T04:47:21;33.60;;;10.50;;
49384;SDS011;36795;45.028;38.968;2023-01-10T04:50:07;33.75;;;10.70;;
49384;SDS011;36795;45.028;38.968;2023-01-10T04:52:54;29.87;;;10.18;;
49384;SDS011;36795;45.028;38.968;2023-01-10T04:55:40;41.55;;;11.35;;
49384;SDS011;36795;45.028;38.968;2023-01-10T04:58:27;35.00;;;9.43;;
49384;SDS011;36795;45.028;38.968;2023-01-10T05:01:15;35.30;;;12.02;;
49384;SDS011;36795;45.028;38.968;2023-01-10T05:04:02;30.83;;;11.68;;
49384;SDS011;36795;45.028;38.968;2023-01-10T05:06:47;36.22;;;10.98;;
49384;SDS011;36795;45.028;38.968;2023-01-10T05:09:34;34.08;;;11.12;;
49384;SDS011;36795;45.028;38.968;2023-01-10T05:12:20;30.45;;;9.68;;
49384;SDS011;36795;45.028;38.968;2023-01-10T05:15:06;31.87;;;10.18;;
49384;SDS011;36795;45.028;38.968;2023-01-10T05:17:56;25.75;;;7.57;;
49384;SDS011;36795;45.028;38.968;2023-01-10T05:20:43;33.53;;;9.75;;
49384;SDS011;36795;45.028;38.968;2023-01-10T05:23:29;32.85;;;10.80;;
49384;SDS011;36795;45.028;38.968;2023-01-10T05:26:21;35.40;;;10.35;;
49384;SDS011;36795;45.028;38.968;2023-01-10T05:29:13;32.97;;;10.35;;
49384;SDS011;36795;45.028;38.968;2023-01-10T05:32:00;34.75;;;9.93;;
49384;SDS011;36795;45.028;38.968;2023-01-10T05:34:48;32.03;;;10.75;;
49384;SDS011;36795;45.028;38.968;2023-01-10T05:37:42;32.13;;;10.45;;
49384;SDS011;36795;45.028;38.968;2023-01-10T05:40:29;35.60;;;13.70;;
49384;SDS011;36795;45.028;38.968;2023-01-10T05:43:15;29.42;;;10.48;;
49384;SDS011;36795;45.028;38.968;2023-01-10T05:46:02;30.02;;;9.23;;
49384;SDS011;36795;45.028;38.968;2023-01-10T05:48:48;27.17;;;8.75;;
49384;SDS011;36795;45.028;38.968;2023-01-10T05:51:34;31.98;;;8.73;;
49384;SDS011;36795;45.028;38.968;2023-01-10T05:54:20;27.35;;;9.13;;
49384;SDS011;36795;45.028;38.968;2023-01-10T05:57:06;31.48;;;10.13;;
49384;SDS011;36795;45.028;38.968;2023-01-10T05:59:53;30.02;;;9.15;;
49384;SDS011;36795;45.028;38.968;2023-01-10T06:02:39;29.27;;;9.18;;
49384;SDS011;36795;45.028;38.968;2023-01-10T06:05:25;26.10;;;8.25;;
49384;SDS011;36795;45.028;38.968;2023-01-10T06:08:11;27.13;;;8.55;;
49384;SDS011;36795;45.028;38.968;2023-01-10T06:10:58;33.85;;;10.00;;
49384;SDS011;36795;45.028;38.968;2023-01-10T06:13:44;31.17;;;10.90;;
49384;SDS011;36795;45.028;38.968;2023-01-10T06:16:33;31.00;;;10.15;;
49384;SDS011;36795;45.028;38.968;2023-01-10T06:19:19;26.42;;;8.70;;
49384;SDS011;36795;45.028;38.968;2023-01-10T06:22:06;28.30;;;8.90;;
49384;SDS011;36795;45.028;38.968;2023-01-10T06:24:53;28.75;;;8.88;;
49384;SDS011;36795;45.028;38.968;2023-01-10T06:27:40;32.17;;;10.35;;
49384;SDS011;36795;45.028;38.968;2023-01-10T06:30:26;32.97;;;8.57;;
49384;SDS011;36795;45.028;38.968;2023-01-10T06:33:13;29.20;;;9.13;;
49384;SDS011;36795;45.028;38.968;2023-01-10T06:35:59;30.35;;;9.50;;
49384;SDS011;36795;45.028;38.968;2023-01-10T06:38:46;26.92;;;9.23;;
49384;SDS011;36795;45.028;38.968;2023-01-10T06:41:32;26.33;;;8.57;;
49384;SDS011;36795;45.028;38.968;2023-01-10T06:44:18;25.15;;;8.52;;
49384;SDS011;36795;45.028;38.968;2023-01-10T06:47:04;25.15;;;8.13;;
49384;SDS011;36795;45.028;38.968;2023-01-10T06:49:51;28.40;;;8.10;;
49384;SDS011;36795;45.028;38.968;2023-01-10T06:52:37;27.98;;;9.23;;
49384;SDS011;36795;45.028;38.968;2023-01-10T06:55:24;22.42;;;5.87;;
49384;SDS011;36795;45.028;38.968;2023-01-10T06:58:14;27.75;;;8.13;;
49384;SDS011;36795;45.028;38.968;2023-01-10T07:01:04;26.25;;;6.47;;
49384;SDS011;36795;45.028;38.968;2023-01-10T07:03:50;25.80;;;6.97;;
49384;SDS011;36795;45.028;38.968;2023-01-10T07:06:37;23.85;;;6.97;;
49384;SDS011;36795;45.028;38.968;2023-01-10T07:09:23;32.78;;;10.02;;
49384;SDS011;36795;45.028;38.968;2023-01-10T07:12:09;30.23;;;8.73;;
49384;SDS011;36795;45.028;38.968;2023-01-10T07:14:55;31.30;;;9.15;;
49384;SDS011;36795;45.028;38.968;2023-01-10T07:17:45;24.87;;;8.07;;
49384;SDS011;36795;45.028;38.968;2023-01-10T07:20:31;23.73;;;6.57;;
49384;SDS011;36795;45.028;38.968;2023-01-10T07:23:18;31.17;;;8.63;;
49384;SDS011;36795;45.028;38.968;2023-01-10T07:26:05;31.70;;;9.48;;
49384;SDS011;36795;45.028;38.968;2023-01-10T07:28:52;31.77;;;8.52;;
49384;SDS011;36795;45.028;38.968;2023-01-10T07:31:38;31.23;;;9.77;;
49384;SDS011;36795;45.028;38.968;2023-01-10T07:34:24;29.95;;;8.98;;
49384;SDS011;36795;45.028;38.968;2023-01-10T07:37:10;25.23;;;7.60;;
49384;SDS011;36795;45.028;38.968;2023-01-10T07:39:56;32.85;;;8.93;;
49384;SDS011;36795;45.028;38.968;2023-01-10T07:42:43;29.45;;;8.68;;
49384;SDS011;36795;45.028;38.968;2023-01-10T07:45:29;44.25;;;10.15;;
49384;SDS011;36795;45.028;38.968;2023-01-10T07:48:15;30.70;;;8.43;;
49384;SDS011;36795;45.028;38.968;2023-01-10T07:51:12;30.45;;;8.88;;
49384;SDS011;36795;45.028;38.968;2023-01-10T07:54:04;29.45;;;9.57;;
49384;SDS011;36795;45.028;38.968;2023-01-10T07:56:50;29.33;;;8.90;;
49384;SDS011;36795;45.028;38.968;2023-01-10T07:59:37;32.10;;;9.60;;
49384;SDS011;36795;45.028;38.968;2023-01-10T08:02:23;32.38;;;8.85;;
49384;SDS011;36795;45.028;38.968;2023-01-10T08:05:10;32.10;;;10.00;;
49384;SDS011;36795;45.028;38.968;2023-01-10T08:07:56;27.73;;;9.60;;
49384;SDS011;36795;45.028;38.968;2023-01-10T08:10:44;29.92;;;8.55;;
49384;SDS011;36795;45.028;38.968;2023-01-10T08:13:30;30.73;;;9.35;;
49384;SDS011;36795;45.028;38.968;2023-01-10T08:16:16;28.67;;;8.80;;
49384;SDS011;36795;45.028;38.968;2023-01-10T08:19:04;29.12;;;9.38;;
49384;SDS011;36795;45.028;38.968;2023-01-10T08:21:53;29.12;;;8.63;;
49384;SDS011;36795;45.028;38.968;2023-01-10T08:24:39;31.50;;;9.43;;
49384;SDS011;36795;45.028;38.968;2023-01-10T08:27:25;30.00;;;9.57;;
49384;SDS011;36795;45.028;38.968;2023-01-10T08:30:12;35.78;;;9.70;;
49384;SDS011;36795;45.028;38.968;2023-01-10T08:33:01;30.58;;;9.82;;
49384;SDS011;36795;45.028;38.968;2023-01-10T08:35:47;30.48;;;10.27;;
49384;SDS011;36795;45.028;38.968;2023-01-10T08:38:39;30.30;;;10.30;;
49384;SDS011;36795;45.028;38.968;2023-01-10T08:41:25;32.30;;;8.80;;
49384;SDS011;36795;45.028;38.968;2023-01-10T08:44:12;30.98;;;10.20;;
49384;SDS011;36795;45.028;38.968;2023-01-10T08:47:00;26.62;;;8.93;;
49384;SDS011;36795;45.028;38.968;2023-01-10T08:49:47;28.45;;;9.13;;
49384;SDS011;36795;45.028;38.968;2023-01-10T08:52:33;26.25;;;8.63;;
49384;SDS011;36795;45.028;38.968;2023-01-10T08:55:20;30.45;;;9.45;;
49384;SDS011;36795;45.028;38.968;2023-01-10T08:58:06;29.98;;;9.85;;
49384;SDS011;36795;45.028;38.968;2023-01-10T09:00:53;32.83;;;10.02;;
49384;SDS011;36795;45.028;38.968;2023-01-10T09:03:39;31.35;;;9.95;;
49384;SDS011;36795;45.028;38.968;2023-01-10T09:06:26;28.12;;;8.60;;
49384;SDS011;36795;45.028;38.968;2023-01-10T09:09:12;29.00;;;9.60;;
49384;SDS011;36795;45.028;38.968;2023-01-10T09:11:58;26.20;;;9.00;;
49384;SDS011;36795;45.028;38.968;2023-01-10T09:14:44;29.85;;;10.30;;
49384;SDS011;36795;45.028;38.968;2023-01-10T09:17:31;31.33;;;10.40;;
49384;SDS011;36795;45.028;38.968;2023-01-10T09:20:17;30.92;;;10.13;;
49384;SDS011;36795;45.028;38.968;2023-01-10T09:23:05;26.62;;;9.60;;
49384;SDS011;36795;45.028;38.968;2023-01-10T09:25:52;29.02;;;9.52;;
49384;SDS011;36795;45.028;38.968;2023-01-10T09:28:40;31.67;;;10.73;;
49384;SDS011;36795;45.028;38.968;2023-01-10T09:31:27;26.42;;;10.18;;
49384;SDS011;36795;45.028;38.968;2023-01-10T09:34:13;30.77;;;10.90;;
49384;SDS011;36795;45.028;38.968;2023-01-10T09:36:59;29.45;;;10.18;;
49384;SDS011;36795;45.028;38.968;2023-01-10T09:39:46;34.15;;;9.27;;
49384;SDS011;36795;45.028;38.968;2023-01-10T09:45:31;27.75;;;9.45;;
49384;SDS011;36795;45.028;38.968;2023-01-10T09:48:26;26.23;;;9.32;;
49384;SDS011;36795;45.028;38.968;2023-01-10T09:54:11;25.20;;;8.95;;
49384;SDS011;36795;45.028;38.968;2023-01-10T09:56:59;30.48;;;9.02;;
49384;SDS011;36795;45.028;38.968;2023-01-10T09:59:50;29.83;;;9.18;;
49384;SDS011;36795;45.028;38.968;2023-01-10T10:02:43;26.27;;;8.68;;
49384;SDS011;36795;45.028;38.968;2023-01-10T10:05:30;26.30;;;8.50;;
49384;SDS011;36795;45.028;38.968;2023-01-10T10:08:16;29.90;;;10.05;;
49384;SDS011;36795;45.028;38.968;2023-01-10T10:11:22;28.12;;;10.00;;
49384;SDS011;36795;45.028;38.968;2023-01-10T10:26:37;29.70;;;7.50;;
49384;SDS011;36795;45.028;38.968;2023-01-10T10:29:43;25.05;;;7.50;;
49384;SDS011;36795;45.028;38.968;2023-01-10T10:38:18;28.95;;;9.48;;
49384;SDS011;36795;45.028;38.968;2023-01-10T10:41:12;23.48;;;8.75;;
49384;SDS011;36795;45.028;38.968;2023-01-10T10:44:01;26.30;;;8.45;;
49384;SDS011;36795;45.028;38.968;2023-01-10T10:46:52;27.92;;;7.55;;
49384;SDS011;36795;45.028;38.968;2023-01-10T10:50:26;27.00;;;8.07;;
49384;SDS011;36795;45.028;38.968;2023-01-10T10:52:45;23.87;;;7.40;;
49384;SDS011;36795;45.028;38.968;2023-01-10T10:55:35;21.45;;;7.55;;
49384;SDS011;36795;45.028;38.968;2023-01-10T10:58:22;21.73;;;6.93;;
49384;SDS011;36795;45.028;38.968;2023-01-10T11:01:11;24.95;;;7.12;;
49384;SDS011;36795;45.028;38.968;2023-01-10T11:04:05;22.85;;;7.43;;
49384;SDS011;36795;45.028;38.968;2023-01-10T11:06:53;25.73;;;7.57;;
49384;SDS011;36795;45.028;38.968;2023-01-10T11:09:39;25.83;;;7.72;;
49384;SDS011;36795;45.028;38.968;2023-01-10T11:12:36;26.85;;;7.97;;
49384;SDS011;36795;45.028;38.968;2023-01-10T11:15:40;29.10;;;7.97;;
49384;SDS011;36795;45.028;38.968;2023-01-10T11:18:26;28.08;;;6.60;;
49384;SDS011;36795;45.028;38.968;2023-01-10T11:21:13;24.17;;;7.47;;
49384;SDS011;36795;45.028;38.968;2023-01-10T11:24:00;26.95;;;8.18;;
49384;SDS011;36795;45.028;38.968;2023-01-10T11:26:47;28.10;;;7.03;;
49384;SDS011;36795;45.028;38.968;2023-01-10T11:29:37;25.10;;;7.00;;
49384;SDS011;36795;45.028;38.968;2023-01-10T11:32:32;25.25;;;7.20;;
49384;SDS011;36795;45.028;38.968;2023-01-10T11:35:19;22.53;;;6.13;;
49384;SDS011;36795;45.028;38.968;2023-01-10T11:41:12;24.67;;;7.07;;
49384;SDS011;36795;45.028;38.968;2023-01-10T11:44:24;24.92;;;7.35;;
49384;SDS011;36795;45.028;38.968;2023-01-10T11:47:10;24.23;;;6.72;;
49384;SDS011;36795;45.028;38.968;2023-01-10T11:49:59;22.85;;;6.97;;
49384;SDS011;36795;45.028;38.968;2023-01-10T11:52:46;26.02;;;6.85;;
49384;SDS011;36795;45.028;38.968;2023-01-10T11:55:34;22.62;;;6.95;;
49384;SDS011;36795;45.028;38.968;2023-01-10T11:58:20;23.90;;;7.47;;
49384;SDS011;36795;45.028;38.968;2023-01-10T12:01:22;23.58;;;6.68;;
49384;SDS011;36795;45.028;38.968;2023-01-10T12:04:13;30.37;;;7.78;;
49384;SDS011;36795;45.028;38.968;2023-01-10T12:07:03;24.35;;;7.57;;
49384;SDS011;36795;45.028;38.968;2023-01-10T12:09:54;29.80;;;8.73;;
49384;SDS011;36795;45.028;38.968;2023-01-10T12:12:42;28.85;;;8.27;;
49384;SDS011;36795;45.028;38.968;2023-01-10T12:15:38;26.83;;;7.43;;
49384;SDS011;36795;45.028;38.968;2023-01-10T12:18:28;25.58;;;6.87;;
49384;SDS011;36795;45.028;38.968;2023-01-10T12:21:15;25.77;;;6.95;;
49384;SDS011;36795;45.028;38.968;2023-01-10T12:24:12;22.23;;;7.35;;
49384;SDS011;36795;45.028;38.968;2023-01-10T12:27:01;23.25;;;6.57;;
49384;SDS011;36795;45.028;38.968;2023-01-10T12:29:52;28.10;;;7.45;;
49384;SDS011;36795;45.028;38.968;2023-01-10T12:32:46;25.92;;;6.80;;
49384;SDS011;36795;45.028;38.968;2023-01-10T12:35:41;27.90;;;8.05;;
49384;SDS011;36795;45.028;38.968;2023-01-10T12:38:35;26.58;;;7.95;;
49384;SDS011;36795;45.028;38.968;2023-01-10T12:44:48;25.67;;;6.45;;
49384;SDS011;36795;45.028;38.968;2023-01-10T12:50:32;24.58;;;7.12;;
49384;SDS011;36795;45.028;38.968;2023-01-10T12:56:18;25.50;;;7.37;;
49384;SDS011;36795;45.028;38.968;2023-01-10T12:59:10;24.67;;;8.27;;
49384;SDS011;36795;45.028;38.968;2023-01-10T13:02:00;24.35;;;7.18;;
49384;SDS011;36795;45.028;38.968;2023-01-10T13:04:49;29.00;;;8.45;;
49384;SDS011;36795;45.028;38.968;2023-01-10T13:07:37;27.50;;;7.43;;
49384;SDS011;36795;45.028;38.968;2023-01-10T13:10:23;28.83;;;8.25;;
49384;SDS011;36795;45.028;38.968;2023-01-10T13:13:21;25.27;;;7.50;;
49384;SDS011;36795;45.028;38.968;2023-01-10T13:24:58;26.65;;;7.80;;
49384;SDS011;36795;45.028;38.968;2023-01-10T13:27:44;34.30;;;7.45;;
49384;SDS011;36795;45.028;38.968;2023-01-10T13:30:32;26.60;;;7.93;;
49384;SDS011;36795;45.028;38.968;2023-01-10T13:33:31;27.60;;;7.40;;
49384;SDS011;36795;45.028;38.968;2023-01-10T13:36:23;24.50;;;7.97;;
49384;SDS011;36795;45.028;38.968;2023-01-10T13:45:27;30.23;;;7.90;;
49384;SDS011;36795;45.028;38.968;2023-01-10T13:48:24;23.27;;;6.70;;
49384;SDS011;36795;45.028;38.968;2023-01-10T13:51:15;25.08;;;6.62;;
49384;SDS011;36795;45.028;38.968;2023-01-10T13:54:02;21.42;;;5.03;;
49384;SDS011;36795;45.028;38.968;2023-01-10T13:56:49;24.85;;;7.22;;
49384;SDS011;36795;45.028;38.968;2023-01-10T14:02:43;23.83;;;6.10;;
49384;SDS011;36795;45.028;38.968;2023-01-10T14:05:30;29.60;;;8.32;;
49384;SDS011;36795;45.028;38.968;2023-01-10T14:08:16;27.23;;;8.00;;
49384;SDS011;36795;45.028;38.968;2023-01-10T14:11:07;25.70;;;6.32;;
49384;SDS011;36795;45.028;38.968;2023-01-10T14:13:55;29.27;;;7.87;;
49384;SDS011;36795;45.028;38.968;2023-01-10T14:16:42;31.10;;;7.43;;
49384;SDS011;36795;45.028;38.968;2023-01-10T14:19:31;28.30;;;8.43;;
49384;SDS011;36795;45.028;38.968;2023-01-10T14:22:55;27.15;;;7.50;;
49384;SDS011;36795;45.028;38.968;2023-01-10T14:25:35;25.48;;;6.70;;
49384;SDS011;36795;45.028;38.968;2023-01-10T14:28:26;22.87;;;6.15;;
49384;SDS011;36795;45.028;38.968;2023-01-10T14:31:22;26.25;;;7.35;;
49384;SDS011;36795;45.028;38.968;2023-01-10T14:34:10;24.48;;;6.05;;
49384;SDS011;36795;45.028;38.968;2023-01-10T14:39:47;23.25;;;6.57;;
49384;SDS011;36795;45.028;38.968;2023-01-10T14:42:36;29.15;;;7.47;;
49384;SDS011;36795;45.028;38.968;2023-01-10T14:48:21;26.12;;;7.75;;
49384;SDS011;36795;45.028;38.968;2023-01-10T14:53:59;22.95;;;6.15;;
49384;SDS011;36795;45.028;38.968;2023-01-10T14:56:47;24.35;;;6.65;;
49384;SDS011;36795;45.028;38.968;2023-01-10T14:59:33;22.17;;;6.28;;
49384;SDS011;36795;45.028;38.968;2023-01-10T15:02:21;31.37;;;7.47;;
49384;SDS011;36795;45.028;38.968;2023-01-10T15:05:22;27.42;;;6.57;;
49384;SDS011;36795;45.028;38.968;2023-01-10T15:08:19;29.15;;;6.47;;
49384;SDS011;36795;45.028;38.968;2023-01-10T15:11:06;23.52;;;6.78;;
49384;SDS011;36795;45.028;38.968;2023-01-10T15:13:55;33.00;;;7.15;;
49384;SDS011;36795;45.028;38.968;2023-01-10T15:19:39;28.62;;;7.07;;
49384;SDS011;36795;45.028;38.968;2023-01-10T15:22:32;28.27;;;6.60;;
49384;SDS011;36795;45.028;38.968;2023-01-10T15:28:15;30.48;;;7.55;;
49384;SDS011;36795;45.028;38.968;2023-01-10T15:31:03;24.70;;;6.75;;
49384;SDS011;36795;45.028;38.968;2023-01-10T15:33:52;25.80;;;6.87;;
49384;SDS011;36795;45.028;38.968;2023-01-10T15:36:42;27.25;;;7.00;;
49384;SDS011;36795;45.028;38.968;2023-01-10T15:39:30;25.02;;;6.70;;
49384;SDS011;36795;45.028;38.968;2023-01-10T15:42:18;23.95;;;5.65;;
49384;SDS011;36795;45.028;38.968;2023-01-10T15:48:28;29.02;;;6.90;;
49384;SDS011;36795;45.028;38.968;2023-01-10T15:51:26;24.30;;;6.37;;
49384;SDS011;36795;45.028;38.968;2023-01-10T15:57:04;24.70;;;6.55;;
49384;SDS011;36795;45.028;38.968;2023-01-10T15:59:52;22.90;;;5.47;;
49384;SDS011;36795;45.028;38.968;2023-01-10T16:02:38;20.80;;;4.55;;
49384;SDS011;36795;45.028;38.968;2023-01-10T16:05:28;19.45;;;5.20;;
49384;SDS011;36795;45.028;38.968;2023-01-10T16:08:14;21.98;;;6.12;;
49384;SDS011;36795;45.028;38.968;2023-01-10T16:11:02;24.65;;;6.25;;
49384;SDS011;36795;45.028;38.968;2023-01-10T16:13:49;26.15;;;5.70;;
49384;SDS011;36795;45.028;38.968;2023-01-10T16:16:37;24.45;;;5.95;;
49384;SDS011;36795;45.028;38.968;2023-01-10T16:19:23;23.95;;;5.57;;
49384;SDS011;36795;45.028;38.968;2023-01-10T16:22:09;23.73;;;5.35;;
49384;SDS011;36795;45.028;38.968;2023-01-10T16:25:01;21.87;;;5.22;;
49384;SDS011;36795;45.028;38.968;2023-01-10T16:27:47;21.83;;;4.45;;
49384;SDS011;36795;45.028;38.968;2023-01-10T16:30:33;27.17;;;9.05;;
49384;SDS011;36795;45.028;38.968;2023-01-10T16:33:24;23.12;;;6.85;;
49384;SDS011;36795;45.028;38.968;2023-01-10T16:36:12;26.50;;;6.50;;
49384;SDS011;36795;45.028;38.968;2023-01-10T16:39:05;21.73;;;5.25;;
49384;SDS011;36795;45.028;38.968;2023-01-10T16:41:52;22.15;;;5.68;;
49384;SDS011;36795;45.028;38.968;2023-01-10T16:44:57;23.70;;;6.45;;
49384;SDS011;36795;45.028;38.968;2023-01-10T16:47:43;28.50;;;6.43;;
49384;SDS011;36795;45.028;38.968;2023-01-10T16:50:32;28.73;;;5.70;;
49384;SDS011;36795;45.028;38.968;2023-01-10T16:53:18;27.98;;;6.47;;
49384;SDS011;36795;45.028;38.968;2023-01-10T16:56:07;24.10;;;6.10;;
49384;SDS011;36795;45.028;38.968;2023-01-10T16:58:56;16.50;;;3.85;;
49384;SDS011;36795;45.028;38.968;2023-01-10T17:01:44;17.12;;;4.62;;
49384;SDS011;36795;45.028;38.968;2023-01-10T17:04:31;23.83;;;6.60;;
49384;SDS011;36795;45.028;38.968;2023-01-10T17:07:20;27.62;;;6.22;;
49384;SDS011;36795;45.028;38.968;2023-01-10T17:10:06;24.55;;;6.15;;
49384;SDS011;36795;45.028;38.968;2023-01-10T17:12:53;18.60;;;4.57;;
49384;SDS011;36795;45.028;38.968;2023-01-10T17:15:39;26.55;;;5.95;;
49384;SDS011;36795;45.028;38.968;2023-01-10T17:18:26;21.62;;;5.70;;
49384;SDS011;36795;45.028;38.968;2023-01-10T17:21:13;34.10;;;5.62;;
49384;SDS011;36795;45.028;38.968;2023-01-10T17:24:00;26.08;;;5.55;;
49384;SDS011;36795;45.028;38.968;2023-01-10T17:26:46;21.58;;;5.40;;
49384;SDS011;36795;45.028;38.968;2023-01-10T17:29:33;27.83;;;6.45;;
49384;SDS011;36795;45.028;38.968;2023-01-10T17:32:19;22.65;;;5.50;;
49384;SDS011;36795;45.028;38.968;2023-01-10T17:35:05;27.25;;;6.75;;
49384;SDS011;36795;45.028;38.968;2023-01-10T17:37:51;24.10;;;5.93;;
49384;SDS011;36795;45.028;38.968;2023-01-10T17:40:42;24.37;;;5.35;;
49384;SDS011;36795;45.028;38.968;2023-01-10T17:43:29;21.45;;;5.30;;
49384;SDS011;36795;45.028;38.968;2023-01-10T17:46:16;21.75;;;4.78;;
49384;SDS011;36795;45.028;38.968;2023-01-10T17:49:01;16.92;;;3.90;;
49384;SDS011;36795;45.028;38.968;2023-01-10T17:51:48;24.17;;;4.53;;
49384;SDS011;36795;45.028;38.968;2023-01-10T17:54:34;20.75;;;5.57;;
49384;SDS011;36795;45.028;38.968;2023-01-10T17:57:20;25.65;;;5.50;;
49384;SDS011;36795;45.028;38.968;2023-01-10T18:00:07;24.85;;;6.15;;
49384;SDS011;36795;45.028;38.968;2023-01-10T18:02:54;29.85;;;6.40;;
49384;SDS011;36795;45.028;38.968;2023-01-10T18:05:47;20.20;;;5.47;;
49384;SDS011;36795;45.028;38.968;2023-01-10T18:08:33;28.23;;;4.60;;
49384;SDS011;36795;45.028;38.968;2023-01-10T18:11:21;26.52;;;6.65;;
49384;SDS011;36795;45.028;38.968;2023-01-10T18:14:09;24.87;;;5.07;;